Time;durP1;ratioP1;P1;durP2;ratioP2;P2;SDS_P1;SDS_P2;PMS_P1;PMS_P2;Temp;Humidity;BMP_temperature;BMP_pressure;BME280_temperature;BME280_humidity;BME280_pressure;Samples;Min_cycle;Max_cycle;Signal;HPM_P1;HPM_P2
2023/05/05 00:01:07;;;;;;;9.70;7.75;;;16.20;85.80;;;;;;6186834;22;88911;-82
2023/05/05 00:03:34;;;;;;;10.90;8.23;;;16.20;86.10;;;;;;6187285;22;88210;-81
2023/05/05 00:05:59;;;;;;;11.48;7.80;;;16.20;86.40;;;;;;6185729;22;87182;-82
2023/05/05 00:08:25;;;;;;;11.55;8.57;;;16.20;86.10;;;;;;6187346;22;86355;-81
2023/05/05 00:10:52;;;;;;;20.02;7.47;;;16.30;86.10;;;;;;6186319;22;89001;-82
2023/05/05 00:13:19;;;;;;;9.27;7.70;;;16.30;86.00;;;;;;6186036;22;88227;-80
2023/05/05 00:15:47;;;;;;;10.30;8.20;;;16.30;86.00;;;;;;6187107;22;88511;-82
2023/05/05 00:18:15;;;;;;;8.63;7.35;;;16.30;86.10;;;;;;6159327;22;90429;-82
2023/05/05 00:20:41;;;;;;;10.55;7.85;;;16.30;86.00;;;;;;6184418;22;88911;-81
2023/05/05 00:23:06;;;;;;;16.90;8.52;;;16.30;86.20;;;;;;6158504;22;90678;-82
2023/05/05 00:25:32;;;;;;;12.18;8.18;;;16.30;86.40;;;;;;6159609;22;87332;-83
2023/05/05 00:27:58;;;;;;;13.20;8.93;;;16.40;86.70;;;;;;6186227;22;87464;-83
2023/05/05 00:30:23;;;;;;;13.80;8.68;;;16.40;86.90;;;;;;6160215;22;87939;-82
2023/05/05 00:32:49;;;;;;;11.10;8.07;;;16.30;87.00;;;;;;6159707;22;90509;-83
2023/05/05 00:35:19;;;;;;;12.85;8.27;;;16.40;87.40;;;;;;6156912;22;87737;-83
2023/05/05 00:37:44;;;;;;;11.98;8.75;;;16.40;87.20;;;;;;6182568;22;87643;-82
2023/05/05 00:40:11;;;;;;;9.35;8.25;;;16.40;87.30;;;;;;6155979;22;92289;-83
2023/05/05 00:42:42;;;;;;;15.20;9.65;;;16.40;87.40;;;;;;6156501;22;90747;-83
2023/05/05 00:45:09;;;;;;;10.38;9.07;;;16.40;87.60;;;;;;6183892;22;87132;-83
2023/05/05 00:47:35;;;;;;;12.90;9.32;;;16.40;87.90;;;;;;6159318;22;89727;-83
2023/05/05 00:50:06;;;;;;;13.05;10.18;;;16.40;88.10;;;;;;6159790;22;90655;-82
2023/05/05 00:52:33;;;;;;;12.73;9.75;;;16.40;87.80;;;;;;6185372;22;87904;-82
2023/05/05 00:54:59;;;;;;;15.15;10.65;;;16.40;88.10;;;;;;6158922;22;87430;-82
2023/05/05 00:57:25;;;;;;;12.95;9.15;;;16.30;88.10;;;;;;6159576;22;87648;-82
2023/05/05 00:59:53;;;;;;;11.45;9.65;;;16.30;88.00;;;;;;6158553;22;90556;-82
2023/05/05 01:02:18;;;;;;;13.52;9.63;;;16.30;87.80;;;;;;6187058;22;88206;-82
2023/05/05 01:04:44;;;;;;;12.02;9.68;;;16.20;88.00;;;;;;6159047;22;88352;-83
2023/05/05 01:07:25;;;;;;;14.02;11.00;;;16.20;88.00;;;;;;6158563;22;90552;-82
2023/05/05 01:10:01;;;;;;;12.27;10.07;;;16.20;88.60;;;;;;6159540;22;90498;-82
2023/05/05 01:12:49;;;;;;;17.77;10.20;;;16.10;88.60;;;;;;6157847;22;94228;-81
2023/05/05 01:15:56;;;;;;;17.55;10.23;;;16.10;88.80;;;;;;6155925;22;88444;-82
2023/05/05 01:18:44;;;;;;;12.68;9.93;;;15.90;88.90;;;;;;6157724;22;92966;-82
2023/05/05 01:21:30;;;;;;;15.95;10.38;;;15.90;89.90;;;;;;6158571;22;91790;-81
2023/05/05 01:24:14;;;;;;;12.32;9.93;;;15.80;90.00;;;;;;6185660;22;86869;-82
2023/05/05 01:27:26;;;;;;;17.63;11.50;;;15.70;90.00;;;;;;6159651;22;87291;-82
2023/05/05 01:30:25;;;;;;;15.98;11.23;;;15.70;90.10;;;;;;6113500;22;93502;-81
2023/05/05 01:32:56;;;;;;;16.25;11.43;;;15.50;90.20;;;;;;6186034;22;89113;-80
2023/05/05 01:35:28;;;;;;;14.70;10.88;;;15.50;90.40;;;;;;6160065;22;92193;-80
2023/05/05 01:38:14;;;;;;;17.02;11.95;;;15.50;91.00;;;;;;6159195;22;87618;-81
2023/05/05 01:40:45;;;;;;;16.90;12.80;;;15.40;90.80;;;;;;6185770;22;90325;-81
2023/05/05 01:43:17;;;;;;;18.40;11.45;;;15.40;90.90;;;;;;6158830;22;93864;-81
2023/05/05 01:45:44;;;;;;;19.15;13.60;;;15.40;91.00;;;;;;6160462;22;90608;-80
2023/05/05 01:48:11;;;;;;;19.42;12.52;;;15.30;91.30;;;;;;6170000;22;87550;-80
2023/05/05 01:50:40;;;;;;;19.80;13.10;;;15.30;90.70;;;;;;6160643;22;90148;-80
2023/05/05 01:53:08;;;;;;;17.33;12.93;;;15.30;91.20;;;;;;6158952;22;94012;-80
2023/05/05 01:55:35;;;;;;;16.27;12.30;;;15.20;91.30;;;;;;6185378;22;87966;-81
2023/05/05 01:58:03;;;;;;;16.48;11.88;;;15.20;90.70;;;;;;6186371;22;88168;-80
2023/05/05 02:00:30;;;;;;;15.05;13.15;;;15.10;90.70;;;;;;6162498;22;88745;-80
2023/05/05 02:02:58;;;;;;;16.80;12.82;;;15.10;90.90;;;;;;6188803;22;94986;-80
2023/05/05 02:05:26;;;;;;;18.35;13.60;;;15.00;91.30;;;;;;6191481;22;87218;-80
2023/05/05 02:07:56;;;;;;;20.23;14.43;;;14.90;91.30;;;;;;6162923;22;87456;-81
2023/05/05 02:10:23;;;;;;;21.25;14.15;;;14.80;91.80;;;;;;6189602;22;87586;-81
2023/05/05 02:12:50;;;;;;;17.83;15.30;;;14.80;92.00;;;;;;6190070;22;88249;-80
2023/05/05 02:15:22;;;;;;;20.83;14.02;;;14.70;91.80;;;;;;6162235;22;95680;-80
2023/05/05 02:17:51;;;;;;;17.55;13.90;;;14.60;92.30;;;;;;6159741;22;87605;-81
2023/05/05 02:20:18;;;;;;;19.20;16.08;;;14.60;92.00;;;;;;6189795;22;87621;-80
2023/05/05 02:22:44;;;;;;;20.25;15.10;;;14.50;92.10;;;;;;6160497;22;91973;-80
2023/05/05 02:25:10;;;;;;;19.23;15.70;;;14.50;92.40;;;;;;6161891;22;92537;-81
2023/05/05 02:27:40;;;;;;;21.58;15.77;;;14.50;92.30;;;;;;6162893;22;87123;-80
2023/05/05 02:30:09;;;;;;;22.77;16.15;;;14.50;92.90;;;;;;6160709;22;90050;-81
2023/05/05 02:32:47;;;;;;;20.10;15.57;;;14.50;92.90;;;;;;6162714;22;88229;-81
2023/05/05 02:35:22;;;;;;;20.35;16.08;;;14.50;92.50;;;;;;6160864;22;95186;-80
2023/05/05 02:37:52;;;;;;;17.83;13.88;;;14.40;92.50;;;;;;6161886;22;87404;-80
2023/05/05 02:40:23;;;;;;;19.45;15.50;;;14.40;92.00;;;;;;6161438;22;86786;-81
2023/05/05 02:42:53;;;;;;;21.60;15.77;;;14.30;92.10;;;;;;6161646;22;90288;-80
2023/05/05 02:45:20;;;;;;;22.55;16.70;;;14.30;92.10;;;;;;6161707;22;95293;-80
2023/05/05 02:47:46;;;;;;;20.17;14.80;;;14.20;92.00;;;;;;6186984;22;88338;-80
2023/05/05 02:50:11;;;;;;;20.65;15.75;;;14.10;92.00;;;;;;6162511;22;88477;-80
2023/05/05 02:52:37;;;;;;;19.05;14.20;;;14.10;91.90;;;;;;6161404;22;90113;-80
2023/05/05 02:55:04;;;;;;;21.33;16.58;;;14.00;91.40;;;;;;6187307;22;88916;-80
2023/05/05 02:57:51;;;;;;;22.13;16.70;;;14.00;92.10;;;;;;6161915;22;94950;-80
2023/05/05 03:01:07;;;;;;;21.02;16.27;;;13.90;92.00;;;;;;6187214;22;90534;-80
2023/05/05 03:03:46;;;;;;;23.05;16.98;;;13.90;92.10;;;;;;6094457;23;92569;-80
2023/05/05 03:06:21;;;;;;;25.88;19.35;;;13.80;92.10;;;;;;6159699;22;89090;-80
2023/05/05 03:08:52;;;;;;;21.45;17.00;;;13.80;92.60;;;;;;6188949;22;95880;-80
2023/05/05 03:11:26;;;;;;;22.25;17.50;;;13.70;92.50;;;;;;6162788;22;91339;-80
2023/05/05 03:14:09;;;;;;;22.98;17.42;;;13.60;92.50;;;;;;6161860;22;91146;-80
2023/05/05 03:16:36;;;;;;;22.98;17.52;;;13.60;92.40;;;;;;6190201;22;88255;-81
2023/05/05 03:19:03;;;;;;;26.10;19.55;;;13.60;92.70;;;;;;6162372;22;87747;-81
2023/05/05 03:21:30;;;;;;;19.35;15.60;;;13.60;92.90;;;;;;6191409;22;87532;-81
2023/05/05 03:23:57;;;;;;;27.30;19.00;;;13.60;92.60;;;;;;6163248;22;90477;-80
2023/05/05 03:26:23;;;;;;;24.50;17.80;;;13.50;92.90;;;;;;6164796;22;91591;-80
2023/05/05 03:28:49;;;;;;;24.35;18.67;;;13.50;92.90;;;;;;6164502;22;87363;-80
2023/05/05 03:31:15;;;;;;;20.80;17.30;;;13.50;92.80;;;;;;6163570;22;90706;-81
2023/05/05 03:33:41;;;;;;;21.15;16.63;;;13.40;92.70;;;;;;6166898;22;89722;-80
2023/05/05 03:36:07;;;;;;;27.65;18.55;;;13.40;92.70;;;;;;6193746;22;88527;-80
2023/05/05 03:38:33;;;;;;;21.83;16.85;;;13.30;92.80;;;;;;6192346;22;88240;-80
2023/05/05 03:41:05;;;;;;;20.58;15.43;;;13.20;92.90;;;;;;6163729;22;90007;-80
2023/05/05 03:43:30;;;;;;;30.23;20.27;;;13.20;92.40;;;;;;6162131;22;89092;-80
2023/05/05 03:45:56;;;;;;;27.63;18.77;;;13.10;92.90;;;;;;6161946;22;91567;-80
2023/05/05 03:48:22;;;;;;;20.27;15.35;;;13.10;93.00;;;;;;6191350;22;87233;-80
2023/05/05 03:50:50;;;;;;;21.20;16.10;;;13.00;92.50;;;;;;6173563;22;87275;-80
2023/05/05 03:53:16;;;;;;;33.00;20.38;;;13.00;92.70;;;;;;6189491;22;88699;-81
2023/05/05 03:55:42;;;;;;;23.83;17.83;;;13.00;93.20;;;;;;6162289;22;91150;-80
2023/05/05 03:58:08;;;;;;;19.88;15.13;;;12.90;93.00;;;;;;6187159;22;87914;-79
2023/05/05 04:00:33;;;;;;;22.08;16.17;;;12.90;92.70;;;;;;6162245;22;88713;-80
2023/05/05 04:03:01;;;;;;;25.70;18.10;;;12.80;92.70;;;;;;6188071;22;88289;-80
2023/05/05 04:05:27;;;;;;;36.20;19.75;;;12.80;92.70;;;;;;6190625;22;87821;-80
2023/05/05 04:07:53;;;;;;;25.48;17.33;;;12.70;93.20;;;;;;6190331;22;87451;-80
2023/05/05 04:10:18;;;;;;;26.25;17.83;;;12.70;92.90;;;;;;6161456;22;90035;-80
2023/05/05 04:12:45;;;;;;;25.05;18.40;;;12.60;93.00;;;;;;6175843;22;90606;-80
2023/05/05 04:15:10;;;;;;;26.25;18.05;;;12.60;93.10;;;;;;6164741;22;90960;-80
2023/05/05 04:17:36;;;;;;;24.13;17.35;;;12.50;93.10;;;;;;6192726;22;87243;-80
2023/05/05 04:20:02;;;;;;;23.35;16.55;;;12.50;93.00;;;;;;6152847;22;90466;-80
2023/05/05 04:22:28;;;;;;;26.65;19.00;;;12.50;93.00;;;;;;6190590;22;90152;-80
2023/05/05 04:24:55;;;;;;;30.80;19.25;;;12.50;93.50;;;;;;6191770;22;89554;-80
2023/05/05 04:27:21;;;;;;;36.60;22.15;;;12.50;93.60;;;;;;6190796;22;88180;-80
2023/05/05 04:29:47;;;;;;;30.60;19.23;;;12.60;94.40;;;;;;6189961;22;88286;-80
2023/05/05 04:32:13;;;;;;;31.65;20.35;;;12.60;94.20;;;;;;6162647;22;89209;-80
2023/05/05 04:34:38;;;;;;;26.38;17.98;;;12.60;94.20;;;;;;6187944;22;87912;-80
2023/05/05 04:37:06;;;;;;;27.20;19.98;;;12.60;93.70;;;;;;6187747;22;87401;-80
2023/05/05 04:39:32;;;;;;;29.92;18.83;;;12.60;93.80;;;;;;6163539;22;89185;-80
2023/05/05 04:41:58;;;;;;;28.75;19.38;;;12.60;93.60;;;;;;6160396;22;90283;-80
2023/05/05 04:44:24;;;;;;;27.80;19.85;;;12.60;93.60;;;;;;6164110;22;90125;-81
2023/05/05 04:46:50;;;;;;;25.08;18.45;;;12.60;93.70;;;;;;6186782;22;87453;-80
2023/05/05 04:49:16;;;;;;;25.00;17.90;;;12.70;93.70;;;;;;6159807;22;90481;-80
2023/05/05 04:51:41;;;;;;;27.20;18.42;;;12.70;93.40;;;;;;6186060;22;89549;-80
2023/05/05 04:54:07;;;;;;;27.20;18.52;;;12.70;93.70;;;;;;6158870;22;92012;-80
2023/05/05 04:56:33;;;;;;;25.35;18.80;;;12.70;94.00;;;;;;6162437;22;87367;-80
2023/05/05 04:58:59;;;;;;;30.85;19.92;;;12.70;93.80;;;;;;6187860;22;88005;-80
2023/05/05 05:01:27;;;;;;;23.63;17.52;;;12.70;93.90;;;;;;6163232;22;91304;-81
2023/05/05 05:03:53;;;;;;;24.15;18.20;;;12.80;94.00;;;;;;6188133;22;87804;-80
2023/05/05 05:06:19;;;;;;;25.42;18.38;;;12.80;94.10;;;;;;6160611;22;87739;-80
2023/05/05 05:08:44;;;;;;;23.23;17.08;;;12.80;94.10;;;;;;6158290;22;88886;-80
2023/05/05 05:11:11;;;;;;;36.58;19.70;;;12.80;94.00;;;;;;6186274;22;87389;-80
2023/05/05 05:13:36;;;;;;;29.73;19.13;;;12.80;94.20;;;;;;6173726;22;94366;-80
2023/05/05 05:16:02;;;;;;;30.25;19.50;;;12.90;94.50;;;;;;6161664;22;88270;-80
2023/05/05 05:18:28;;;;;;;26.05;18.83;;;13.00;94.60;;;;;;6162489;22;90446;-80
2023/05/05 05:20:53;;;;;;;28.08;18.83;;;13.00;94.40;;;;;;6186871;22;88586;-80
2023/05/05 05:23:22;;;;;;;32.95;19.33;;;13.10;94.50;;;;;;6190048;22;88075;-80
2023/05/05 05:25:47;;;;;;;26.50;17.83;;;13.20;94.30;;;;;;6162449;22;87283;-80
2023/05/05 05:28:13;;;;;;;34.60;18.67;;;13.20;94.20;;;;;;6163506;22;88124;-80
2023/05/05 05:30:39;;;;;;;42.03;19.00;;;13.30;94.20;;;;;;6190606;22;88548;-80
2023/05/05 05:33:04;;;;;;;26.88;17.30;;;13.40;94.20;;;;;;6162741;22;89740;-81
2023/05/05 05:35:33;;;;;;;30.15;17.27;;;13.40;94.00;;;;;;6192501;22;87491;-80
2023/05/05 05:37:58;;;;;;;25.30;17.65;;;13.50;93.90;;;;;;6164938;22;89563;-80
2023/05/05 05:40:25;;;;;;;25.10;17.90;;;13.50;94.10;;;;;;6187849;22;91773;-80
2023/05/05 05:42:50;;;;;;;23.95;17.20;;;13.60;94.00;;;;;;6166517;22;90925;-80
2023/05/05 05:45:16;;;;;;;23.02;15.98;;;13.70;94.20;;;;;;6162091;22;87394;-80
2023/05/05 05:47:42;;;;;;;22.08;15.82;;;13.80;94.10;;;;;;6161296;22;89518;-80
2023/05/05 05:50:08;;;;;;;23.67;16.63;;;13.90;94.20;;;;;;6187471;22;88497;-80
2023/05/05 05:52:35;;;;;;;24.10;15.82;;;13.90;94.10;;;;;;6162019;22;90976;-80
2023/05/05 05:55:05;;;;;;;25.65;16.20;;;14.00;94.00;;;;;;6188854;22;87307;-79
2023/05/05 05:57:31;;;;;;;23.38;15.05;;;14.10;93.90;;;;;;6165797;22;88054;-81
2023/05/05 05:59:57;;;;;;;27.48;20.80;;;14.10;93.80;;;;;;6144427;22;90155;-79
2023/05/05 06:02:25;;;;;;;25.50;16.65;;;14.20;93.80;;;;;;6187744;22;87915;-79
2023/05/05 06:04:52;;;;;;;23.67;15.90;;;14.20;93.60;;;;;;6172481;22;88283;-81
2023/05/05 06:07:18;;;;;;;21.27;15.40;;;14.30;93.60;;;;;;6169454;22;90842;-81
2023/05/05 06:09:44;;;;;;;22.60;14.32;;;14.40;93.60;;;;;;6164464;22;90374;-80
2023/05/05 06:12:10;;;;;;;23.63;14.48;;;14.40;93.40;;;;;;6188615;22;88300;-80
2023/05/05 06:14:36;;;;;;;22.38;14.90;;;14.50;93.20;;;;;;6167512;22;87526;-80
2023/05/05 06:17:01;;;;;;;21.77;14.95;;;14.60;93.20;;;;;;6167001;22;88452;-81
2023/05/05 06:19:27;;;;;;;22.25;14.90;;;14.60;93.10;;;;;;6193155;22;87420;-81
2023/05/05 06:21:53;;;;;;;23.15;14.75;;;14.80;93.00;;;;;;6192433;22;88374;-80
2023/05/05 06:24:21;;;;;;;21.98;14.45;;;14.80;92.80;;;;;;6166498;22;87229;-80
2023/05/05 06:26:47;;;;;;;19.38;14.95;;;14.90;92.60;;;;;;6161709;22;89867;-80
2023/05/05 06:29:13;;;;;;;20.55;14.68;;;15.10;92.60;;;;;;6165008;22;93174;-81
2023/05/05 06:31:39;;;;;;;20.40;13.23;;;15.30;92.30;;;;;;6166763;22;91975;-81
2023/05/05 06:34:04;;;;;;;21.77;14.27;;;15.40;91.70;;;;;;6165769;22;87459;-81
2023/05/05 06:36:31;;;;;;;21.65;13.13;;;15.60;91.60;;;;;;6194770;22;87629;-80
2023/05/05 06:38:56;;;;;;;21.48;12.48;;;15.70;91.40;;;;;;6162756;22;91196;-81
2023/05/05 06:41:22;;;;;;;20.23;12.30;;;15.90;91.10;;;;;;6159259;22;90403;-82
2023/05/05 06:43:51;;;;;;;19.38;11.20;;;16.10;90.80;;;;;;6183873;22;87579;-83
2023/05/05 06:46:17;;;;;;;17.58;9.68;;;16.20;90.60;;;;;;6141231;22;90367;-85
2023/05/05 06:49:02;;;;;;;18.45;9.52;;;16.20;87.70;;;;;;6145468;22;89199;-85
2023/05/05 06:51:43;;;;;;;16.83;8.98;;;16.30;88.30;;;;;;6140633;22;90933;-83
2023/05/05 06:54:09;;;;;;;22.10;9.88;;;16.30;88.70;;;;;;6164885;22;88318;-87
2023/05/05 06:56:34;;;;;;;19.73;10.00;;;16.40;88.30;;;;;;6162546;22;96008;-83
2023/05/05 06:59:00;;;;;;;14.95;9.38;;;16.50;88.10;;;;;;6159021;22;90156;-84
2023/05/05 07:01:26;;;;;;;15.60;8.90;;;16.70;87.60;;;;;;6157310;22;89784;-81
2023/05/05 07:03:52;;;;;;;14.18;7.95;;;16.90;87.20;;;;;;6185249;22;88193;-82
2023/05/05 07:06:17;;;;;;;13.85;7.63;;;17.10;84.00;;;;;;6185984;22;87608;-81
2023/05/05 07:08:43;;;;;;;14.32;8.20;;;17.30;84.20;;;;;;6142855;22;91152;-81
2023/05/05 07:11:09;;;;;;;14.80;7.18;;;17.40;85.10;;;;;;6156308;22;88631;-79
2023/05/05 07:13:35;;;;;;;18.67;8.57;;;17.50;81.60;;;;;;6157650;22;87358;-79
2023/05/05 07:16:01;;;;;;;13.20;7.50;;;17.50;83.00;;;;;;6156043;22;90217;-79
2023/05/05 07:18:26;;;;;;;13.35;6.82;;;17.60;83.10;;;;;;6181803;22;90048;-78
2023/05/05 07:20:52;;;;;;;12.38;7.18;;;17.60;83.30;;;;;;6144965;22;90932;-79
2023/05/05 07:23:17;;;;;;;14.45;7.45;;;17.70;81.10;;;;;;6158420;22;87442;-78
2023/05/05 07:25:43;;;;;;;12.02;6.50;;;17.70;81.00;;;;;;6154752;22;87993;-79
2023/05/05 07:28:09;;;;;;;19.55;7.03;;;17.70;80.20;;;;;;6156711;22;91028;-79
2023/05/05 07:30:35;;;;;;;10.25;5.95;;;17.70;81.40;;;;;;6158703;22;91256;-79
2023/05/05 07:33:01;;;;;;;9.10;6.10;;;17.70;80.70;;;;;;6184903;22;87628;-80
2023/05/05 07:35:27;;;;;;;12.80;6.40;;;17.80;81.40;;;;;;6157273;22;91230;-79
2023/05/05 07:37:52;;;;;;;10.07;6.10;;;17.80;80.40;;;;;;6184023;22;88901;-80
2023/05/05 07:40:18;;;;;;;10.48;5.28;;;17.80;79.70;;;;;;6182602;22;87661;-79
2023/05/05 07:42:46;;;;;;;9.55;5.53;;;17.90;78.90;;;;;;6156984;22;88521;-80
2023/05/05 07:45:11;;;;;;;11.40;6.20;;;18.00;79.10;;;;;;6157664;22;90521;-82
2023/05/05 07:47:40;;;;;;;12.27;5.95;;;18.20;78.40;;;;;;6156486;22;91232;-83
2023/05/05 07:50:06;;;;;;;8.57;5.57;;;18.30;78.50;;;;;;6154641;22;94035;-82
2023/05/05 07:52:32;;;;;;;13.25;5.75;;;18.40;75.30;;;;;;6155780;22;87577;-82
2023/05/05 07:54:57;;;;;;;8.02;4.53;;;18.50;76.20;;;;;;6156307;22;88028;-81
2023/05/05 07:57:23;;;;;;;11.45;5.47;;;18.70;74.00;;;;;;6160048;22;90806;-81
2023/05/05 07:59:49;;;;;;;8.13;4.95;;;18.80;74.00;;;;;;6158665;22;90193;-81
2023/05/05 08:02:14;;;;;;;10.13;3.70;;;18.80;75.30;;;;;;6187385;22;87139;-82
2023/05/05 08:04:41;;;;;;;6.55;3.25;;;18.90;72.70;;;;;;6158505;22;90047;-82
2023/05/05 08:07:08;;;;;;;7.43;3.70;;;18.90;72.80;;;;;;6185714;22;88671;-82
2023/05/05 08:09:34;;;;;;;11.82;4.68;;;19.10;73.50;;;;;;6170616;22;89812;-82
2023/05/05 08:12:01;;;;;;;5.43;4.15;;;19.10;72.30;;;;;;6185162;22;89045;-82
2023/05/05 08:14:27;;;;;;;7.32;3.80;;;19.10;72.70;;;;;;6183316;22;87397;-82
2023/05/05 08:16:53;;;;;;;11.02;5.47;;;19.20;73.30;;;;;;6186402;22;88110;-82
2023/05/05 08:19:18;;;;;;;8.27;3.85;;;19.20;73.50;;;;;;6159302;22;90820;-82
2023/05/05 08:21:44;;;;;;;8.35;4.10;;;19.40;72.70;;;;;;6146210;22;87516;-82
2023/05/05 08:24:10;;;;;;;7.55;4.13;;;19.40;72.10;;;;;;6159137;22;90640;-82
2023/05/05 08:26:35;;;;;;;5.38;3.30;;;19.50;71.10;;;;;;6186752;22;87677;-82
2023/05/05 08:29:01;;;;;;;7.38;4.05;;;19.60;73.20;;;;;;6185729;22;87846;-81
2023/05/05 08:31:31;;;;;;;6.45;3.63;;;19.70;70.90;;;;;;6184098;22;88484;-80
2023/05/05 08:33:56;;;;;;;5.72;4.20;;;19.70;70.50;;;;;;6144200;22;90310;-80
2023/05/05 08:36:22;;;;;;;7.18;3.95;;;19.70;69.90;;;;;;6184128;22;91171;-80
2023/05/05 08:38:49;;;;;;;7.95;4.00;;;19.50;71.80;;;;;;6158179;22;91668;-80
2023/05/05 08:41:17;;;;;;;9.18;3.80;;;19.50;71.90;;;;;;6186679;22;87330;-79
2023/05/05 08:43:45;;;;;;;8.90;4.32;;;19.50;72.60;;;;;;6184182;22;87503;-79
2023/05/05 08:46:11;;;;;;;8.82;4.55;;;19.40;71.70;;;;;;6158238;22;90731;-79
2023/05/05 08:48:42;;;;;;;9.50;5.05;;;19.40;73.10;;;;;;6172886;22;88683;-78
2023/05/05 08:51:15;;;;;;;8.30;4.85;;;19.30;75.00;;;;;;6158757;22;87318;-79
2023/05/05 08:53:59;;;;;;;7.35;3.58;;;19.20;74.10;;;;;;6185755;22;87548;-80
2023/05/05 08:56:30;;;;;;;6.85;3.40;;;19.30;73.70;;;;;;6184513;22;89755;-79
2023/05/05 08:58:57;;;;;;;7.18;2.85;;;19.20;73.40;;;;;;6184034;22;89665;-80
2023/05/05 09:01:23;;;;;;;6.68;3.30;;;19.30;71.40;;;;;;6186009;22;87400;-80
2023/05/05 09:03:52;;;;;;;5.80;3.00;;;19.30;71.90;;;;;;6186500;22;87584;-80
2023/05/05 09:06:34;;;;;;;;;;;;;;;;;;;;;
2023/05/05 09:09:00;;;;;;;6.60;3.78;;;19.20;71.90;;;;;;6168820;22;116135;-80
2023/05/05 09:11:26;;;;;;;11.07;4.35;;;19.20;73.40;;;;;;6185600;22;87657;-78
2023/05/05 09:13:53;;;;;;;8.55;4.45;;;19.20;72.80;;;;;;6187274;22;86790;-82
2023/05/05 09:16:19;;;;;;;10.75;4.20;;;19.20;73.60;;;;;;6158338;22;91728;-79
2023/05/05 09:18:44;;;;;;;6.70;4.00;;;19.20;74.00;;;;;;6184573;22;87827;-78
2023/05/05 09:21:26;;;;;;;8.18;3.90;;;19.10;72.90;;;;;;6184376;22;91275;-79
2023/05/05 09:24:09;;;;;;;7.43;3.65;;;18.90;73.90;;;;;;6154071;22;89372;-78
2023/05/05 09:26:43;;;;;;;9.97;4.17;;;18.80;74.40;;;;;;6185376;22;88441;-78
2023/05/05 09:29:18;;;;;;;8.73;4.65;;;18.60;75.00;;;;;;6184388;22;91987;-80
2023/05/05 09:32:04;;;;;;;10.32;4.88;;;18.50;78.50;;;;;;6158502;22;87638;-85
2023/05/05 09:34:31;;;;;;;8.73;4.40;;;18.30;81.00;;;;;;6159965;22;89132;-84
2023/05/05 09:37:00;;;;;;;8.82;4.82;;;18.00;81.80;;;;;;6159759;22;91847;-85
2023/05/05 09:39:29;;;;;;;11.82;4.68;;;17.80;83.00;;;;;;6187167;22;87777;-86
2023/05/05 09:41:55;;;;;;;11.55;5.22;;;17.60;84.10;;;;;;6158678;22;87337;-85
2023/05/05 09:44:37;;;;;;;9.68;5.55;;;17.40;86.00;;;;;;6184870;22;89133;-86
2023/05/05 09:47:05;;;;;;;10.13;4.95;;;17.40;86.90;;;;;;6185086;22;89206;-87
2023/05/05 09:49:35;;;;;;;10.75;4.93;;;17.30;87.60;;;;;;6159238;22;90844;-88
2023/05/05 09:52:14;;;;;;;10.93;5.55;;;17.30;88.20;;;;;;6143085;22;87537;-91
2023/05/05 09:54:46;;;;;;;9.63;5.32;;;17.30;88.60;;;;;;6186096;22;89216;-90
2023/05/05 09:57:35;;;;;;;15.30;6.00;;;17.30;90.00;;;;;;6159913;22;90419;-88
2023/05/05 10:00:03;;;;;;;10.77;5.50;;;17.10;90.80;;;;;;6159735;22;91591;-90
2023/05/05 10:02:33;;;;;;;9.57;5.43;;;17.00;90.50;;;;;;6161522;22;87588;-91
2023/05/05 10:05:13;;;;;;;11.05;5.18;;;16.90;90.60;;;;;;6144359;22;88276;-86
2023/05/05 10:07:46;;;;;;;12.45;4.55;;;16.80;90.70;;;;;;6143456;22;90090;-87
2023/05/05 10:10:16;;;;;;;7.80;3.33;;;16.80;91.10;;;;;;6158630;22;91234;-85
2023/05/05 10:12:44;;;;;;;6.90;3.00;;;16.80;90.20;;;;;;6160565;22;88358;-87
2023/05/05 10:15:10;;;;;;;6.85;3.42;;;16.90;90.00;;;;;;6158637;22;89079;-85
2023/05/05 10:17:46;;;;;;;4.68;2.72;;;17.00;90.40;;;;;;6160144;22;90262;-87
2023/05/05 10:20:13;;;;;;;8.00;3.45;;;17.00;90.20;;;;;;6158990;22;93926;-87
2023/05/05 10:22:52;;;;;;;8.20;3.38;;;17.00;89.90;;;;;;6156305;22;87792;-86
2023/05/05 10:25:31;;;;;;;8.43;4.22;;;17.10;90.80;;;;;;6159490;22;90002;-84
2023/05/05 10:28:25;;;;;;;8.02;5.38;;;17.20;90.60;;;;;;6164447;22;90114;-82
2023/05/05 10:30:55;;;;;;;8.15;4.93;;;17.30;90.70;;;;;;6159485;22;87513;-83
2023/05/05 10:36:54;;;;;;;8.30;3.22;;;17.40;90.30;;;;;;6143408;22;91654;-84
2023/05/05 10:39:21;;;;;;;5.95;3.70;;;17.60;89.30;;;;;;6159717;22;91452;-85
2023/05/05 10:41:48;;;;;;;6.95;3.13;;;17.90;90.10;;;;;;6159646;22;92704;-84
2023/05/05 10:44:15;;;;;;;4.82;2.53;;;18.20;87.70;;;;;;6158608;22;87766;-84
2023/05/05 10:46:42;;;;;;;4.13;2.80;;;18.50;87.40;;;;;;6157627;22;89591;-83
2023/05/05 10:49:27;;;;;;;4.65;2.50;;;18.70;86.10;;;;;;6156837;22;90220;-84
2023/05/05 10:52:19;;;;;;;5.50;2.58;;;19.00;83.80;;;;;;6158213;22;89741;-84
2023/05/05 10:54:51;;;;;;;7.03;3.20;;;19.20;86.40;;;;;;6147829;22;87515;-90
2023/05/05 10:57:21;;;;;;;5.88;2.38;;;19.40;81.40;;;;;;6159282;22;91332;-86
2023/05/05 10:59:46;;;;;;;6.35;2.38;;;19.60;78.20;;;;;;6155577;22;90928;-83
2023/05/05 11:02:28;;;;;;;7.35;2.42;;;19.60;80.20;;;;;;6157207;22;91220;-82
2023/05/05 11:05:15;;;;;;;6.00;2.40;;;19.90;79.00;;;;;;6155268;22;88589;-80
2023/05/05 11:07:45;;;;;;;8.38;2.90;;;20.10;77.90;;;;;;6184549;22;87445;-79
2023/05/05 11:10:13;;;;;;;4.85;2.20;;;20.30;79.70;;;;;;6181228;22;88753;-84
2023/05/05 11:13:07;;;;;;;5.35;2.17;;;20.10;76.40;;;;;;6158741;22;90830;-84
2023/05/05 11:15:36;;;;;;;4.55;2.22;;;19.90;76.10;;;;;;6157336;22;88276;-84
2023/05/05 11:18:03;;;;;;;6.10;2.60;;;19.80;78.10;;;;;;6144070;22;91081;-84
2023/05/05 11:20:35;;;;;;;4.88;1.60;;;19.70;76.70;;;;;;6158447;22;90198;-84
2023/05/05 11:23:03;;;;;;;6.53;2.00;;;19.60;76.50;;;;;;6158498;22;91111;-83
2023/05/05 11:25:39;;;;;;;9.07;1.90;;;19.90;79.40;;;;;;6158456;22;87767;-84
2023/05/05 11:28:13;;;;;;;8.98;1.80;;;20.30;80.40;;;;;;6184421;22;87558;-83
2023/05/05 11:30:54;;;;;;;4.65;1.70;;;20.50;72.60;;;;;;6157879;22;92493;-84
2023/05/05 11:33:29;;;;;;;9.77;1.90;;;20.60;75.20;;;;;;6184540;22;90048;-82
2023/05/05 11:36:37;;;;;;;10.40;1.40;;;20.80;73.10;;;;;;6158708;22;87857;-76
2023/05/05 11:39:36;;;;;;;4.07;0.90;;;20.80;71.10;;;;;;6158285;22;90033;-80
2023/05/05 11:42:26;;;;;;;4.75;1.08;;;20.50;72.20;;;;;;6154021;22;91989;-80
2023/05/05 11:44:53;;;;;;;3.15;1.00;;;20.40;70.20;;;;;;6158318;22;90305;-80
2023/05/05 11:47:19;;;;;;;3.22;1.17;;;20.30;69.20;;;;;;6160020;22;87024;-81
2023/05/05 11:49:44;;;;;;;4.68;1.15;;;20.20;70.80;;;;;;6185625;22;87274;-80
2023/05/05 11:52:12;;;;;;;3.70;1.23;;;20.10;72.20;;;;;;6158110;22;90595;-80
2023/05/05 11:54:40;;;;;;;3.25;0.90;;;20.10;71.10;;;;;;6157740;22;91189;-81
2023/05/05 11:57:07;;;;;;;3.08;0.75;;;20.00;72.80;;;;;;6184279;22;88499;-80
2023/05/05 11:59:48;;;;;;;2.50;0.52;;;19.80;68.40;;;;;;6186751;22;87451;-79
2023/05/05 12:02:18;;;;;;;6.25;0.80;;;19.50;69.70;;;;;;6186405;22;93325;-80
2023/05/05 12:04:44;;;;;;;2.47;0.80;;;19.40;71.40;;;;;;6185034;22;88291;-81
2023/05/05 12:07:19;;;;;;;5.28;0.90;;;19.20;71.50;;;;;;6185591;22;87408;-81
2023/05/05 12:09:46;;;;;;;4.50;1.10;;;19.10;72.60;;;;;;6157554;22;89115;-81
2023/05/05 12:12:13;;;;;;;5.72;0.57;;;19.00;72.40;;;;;;6184311;22;88069;-80
2023/05/05 12:14:51;;;;;;;3.25;0.95;;;18.90;72.20;;;;;;6159326;22;91650;-80
2023/05/05 12:17:21;;;;;;;3.95;0.73;;;18.80;71.80;;;;;;6186504;22;87345;-81
2023/05/05 12:19:52;;;;;;;4.05;0.68;;;18.80;72.70;;;;;;6157946;22;88186;-82
2023/05/05 12:22:19;;;;;;;5.78;1.17;;;18.80;72.70;;;;;;6157705;22;92717;-80
2023/05/05 12:24:51;;;;;;;3.70;0.60;;;18.90;74.20;;;;;;6158027;22;92400;-81
2023/05/05 12:27:17;;;;;;;6.38;1.13;;;18.90;71.90;;;;;;6158426;22;87656;-82
2023/05/05 12:29:42;;;;;;;3.17;0.60;;;19.00;71.00;;;;;;6185106;22;87683;-83
2023/05/05 12:32:24;;;;;;;5.30;0.70;;;19.00;71.10;;;;;;6160668;22;90266;-83
2023/05/05 12:34:56;;;;;;;2.22;0.68;;;19.00;72.50;;;;;;6157209;22;90602;-84
2023/05/05 12:37:22;;;;;;;7.80;0.70;;;19.10;70.10;;;;;;6158431;22;87738;-84
2023/05/05 12:39:49;;;;;;;6.00;1.00;;;19.10;71.10;;;;;;6186036;22;87518;-83
2023/05/05 12:42:15;;;;;;;3.60;0.50;;;19.20;70.00;;;;;;6184320;22;89288;-84
2023/05/05 12:44:43;;;;;;;2.38;0.50;;;19.10;69.00;;;;;;6159197;22;88539;-84
2023/05/05 12:47:12;;;;;;;1.85;0.60;;;19.10;68.20;;;;;;6160016;22;88606;-83
2023/05/05 12:49:48;;;;;;;3.67;0.93;;;19.20;68.30;;;;;;6157577;22;89500;-83
2023/05/05 12:52:15;;;;;;;5.07;0.60;;;19.30;66.00;;;;;;6185883;22;87830;-84
2023/05/05 12:54:57;;;;;;;4.07;1.00;;;19.50;68.70;;;;;;6158787;22;90115;-84